Time;durP1;ratioP1;P1;durP2;ratioP2;P2;SDS_P1;SDS_P2;PMS_P1;PMS_P2;Temp;Humidity;BMP_temperature;BMP_pressure;BME280_temperature;BME280_humidity;BME280_pressure;Samples;Min_cycle;Max_cycle;Signal;HPM_P1;HPM_P2
2023/09/03 00:00:37;;;;;;;;;;;;;;;21.10;59.89;101840.69;5026214;28;4330;-64
2023/09/03 00:03:04;;;;;;;;;;;;;;;21.09;60.01;101844.94;5028594;28;4015;-62
2023/09/03 00:05:31;;;;;;;;;;;;;;;21.08;59.97;101838.44;5031978;28;4173;-62
2023/09/03 00:07:57;;;;;;;;;;;;;;;21.08;60.13;101832.69;5028943;28;4113;-62
2023/09/03 00:10:23;;;;;;;;;;;;;;;21.08;59.98;101832.69;5028212;28;4241;-62
2023/09/03 00:12:50;;;;;;;;;;;;;;;21.08;60.01;101826.19;5042295;28;4169;-63
2023/09/03 00:15:21;;;;;;;;;;;;;;;21.09;60.21;101833.41;5027033;28;4224;-63
2023/09/03 00:17:47;;;;;;;;;;;;;;;21.08;59.91;101837.69;5025284;28;4134;-63
2023/09/03 00:20:14;;;;;;;;;;;;;;;21.08;60.26;101829.06;5025339;28;4018;-63
2023/09/03 00:22:41;;;;;;;;;;;;;;;21.08;60.14;101832.69;5025861;28;3998;-63
2023/09/03 00:25:08;;;;;;;;;;;;;;;21.08;60.41;101832.69;5031274;28;4198;-63
2023/09/03 00:27:34;;;;;;;;;;;;;;;21.07;60.01;101834.06;5027104;28;4088;-63
2023/09/03 00:30:01;;;;;;;;;;;;;;;21.07;60.07;101836.94;5024384;28;4192;-63
2023/09/03 00:32:27;;;;;;;;;;;;;;;21.07;60.21;101836.19;5029676;28;3991;-63
2023/09/03 00:34:53;;;;;;;;;;;;;;;21.07;60.26;101831.19;5031378;28;4184;-63
2023/09/03 00:37:20;;;;;;;;;;;;;;;21.09;60.13;101844.94;5025370;28;4118;-65
2023/09/03 00:39:46;;;;;;;;;;;;;;;21.08;60.17;101843.47;5027327;28;4139;-63
2023/09/03 00:42:13;;;;;;;;;;;;;;;21.07;60.37;101841.94;5026698;28;4522;-63
2023/09/03 00:44:39;;;;;;;;;;;;;;;21.07;60.19;101839.84;5026420;28;4090;-63
2023/09/03 00:47:07;;;;;;;;;;;;;;;21.07;60.23;101842.72;5023822;28;4089;-64
2023/09/03 00:49:37;;;;;;;;;;;;;;;21.08;60.35;101846.34;5029647;28;4027;-63
2023/09/03 00:52:04;;;;;;;;;;;;;;;21.06;60.23;101840.44;5027221;28;4112;-63
2023/09/03 00:54:30;;;;;;;;;;;;;;;21.07;60.25;101836.19;5032588;28;4105;-63
2023/09/03 00:56:57;;;;;;;;;;;;;;;21.06;60.24;101843.34;5026391;28;4181;-63
2023/09/03 00:59:23;;;;;;;;;;;;;;;21.07;60.55;101847.69;5027848;28;4432;-63
2023/09/03 01:01:51;;;;;;;;;;;;;;;21.06;60.30;101834.69;5025197;28;4123;-63
2023/09/03 01:04:18;;;;;;;;;;;;;;;21.07;60.34;101836.19;5028690;28;4146;-63
2023/09/03 01:06:45;;;;;;;;;;;;;;;21.06;60.41;101834.69;5040221;28;4111;-63
2023/09/03 01:09:12;;;;;;;;;;;;;;;21.05;60.39;101830.28;5026251;28;4307;-63
2023/09/03 01:11:38;;;;;;;;;;;;;;;21.07;60.34;101834.06;5030837;28;4189;-63
2023/09/03 01:14:12;;;;;;;;;;;;;;;21.06;60.72;101840.44;5025902;28;4627;-63
2023/09/03 01:17:01;;;;;;;;;;;;;;;21.06;60.50;101846.22;5023556;28;4001;-63
2023/09/03 01:19:47;;;;;;;;;;;;;;;21.06;60.39;101841.19;5019354;28;4284;-63
2023/09/03 01:22:24;;;;;;;;;;;;;;;21.05;60.38;101839.72;5023298;28;4353;-63
2023/09/03 01:24:59;;;;;;;;;;;;;;;21.06;60.27;101834.69;5042978;28;4177;-63
2023/09/03 01:27:28;;;;;;;;;;;;;;;21.05;60.36;101833.19;5020433;28;4026;-63
2023/09/03 01:29:55;;;;;;;;;;;;;;;21.06;60.49;101840.44;5022191;28;4179;-63
2023/09/03 01:32:21;;;;;;;;;;;;;;;21.05;60.43;101833.94;5037362;28;4033;-63
2023/09/03 01:34:48;;;;;;;;;;;;;;;21.05;60.43;101836.81;5025859;28;4366;-63
2023/09/03 01:37:14;;;;;;;;;;;;;;;21.06;60.29;101840.44;5028410;28;5148;-63
2023/09/03 01:39:40;;;;;;;;;;;;;;;21.05;60.49;101841.81;5026104;28;4449;-63
2023/09/03 01:42:07;;;;;;;;;;;;;;;21.05;60.47;101842.59;5027302;28;3966;-63
2023/09/03 01:44:33;;;;;;;;;;;;;;;21.05;60.50;101839.72;5028351;28;4175;-64
2023/09/03 01:47:02;;;;;;;;;;;;;;;21.06;60.61;101843.34;5023001;28;3972;-63
2023/09/03 01:49:42;;;;;;;;;;;;;;;21.06;60.74;101846.22;5044222;28;3993;-63
2023/09/03 01:52:18;;;;;;;;;;;;;;;21.06;60.68;101846.22;5033868;28;4115;-63
2023/09/03 01:54:47;;;;;;;;;;;;;;;21.05;60.52;101842.59;5027685;28;4302;-63
2023/09/03 01:57:32;;;;;;;;;;;;;;;21.04;60.53;101843.94;5039621;28;4600;-63
2023/09/03 02:00:00;;;;;;;;;;;;;;;21.04;60.63;101834.56;5033178;28;4305;-65
2023/09/03 02:02:27;;;;;;;;;;;;;;;21.04;60.76;101825.94;5024019;28;4027;-63
2023/09/03 02:04:54;;;;;;;;;;;;;;;21.04;60.64;101832.44;5025094;28;4112;-63
2023/09/03 02:07:21;;;;;;;;;;;;;;;21.04;60.54;101837.44;5022411;28;4121;-63
2023/09/03 02:09:47;;;;;;;;;;;;;;;21.04;60.79;101843.22;5044349;28;4204;-63
2023/09/03 02:12:16;;;;;;;;;;;;;;;21.04;60.65;101843.22;5023310;28;5033;-63
2023/09/03 02:14:42;;;;;;;;;;;;;;;21.04;60.56;101843.94;5027108;28;4140;-63
2023/09/03 02:17:09;;;;;;;;;;;;;;;21.04;60.75;101848.97;5023232;28;4116;-63
2023/09/03 02:19:35;;;;;;;;;;;;;;;21.02;60.57;101845.97;5027328;28;4197;-63
2023/09/03 02:22:02;;;;;;;;;;;;;;;21.03;60.44;101848.22;5026111;28;4332;-63
2023/09/03 02:24:28;;;;;;;;;;;;;;;21.02;60.72;101840.22;5028647;28;4073;-63
2023/09/03 02:26:55;;;;;;;;;;;;;;;21.03;60.56;101844.59;5024893;28;4052;-62
2023/09/03 02:29:21;;;;;;;;;;;;;;;21.02;60.41;101840.22;5022534;28;4030;-63
2023/09/03 02:31:48;;;;;;;;;;;;;;;21.02;60.46;101840.22;5025415;28;4133;-63
2023/09/03 02:34:15;;;;;;;;;;;;;;;21.02;60.56;101840.22;5028648;28;4061;-63
2023/09/03 02:36:42;;;;;;;;;;;;;;;21.01;60.54;101845.22;5028281;28;4188;-65
2023/09/03 02:39:08;;;;;;;;;;;;;;;21.01;60.69;101853.13;5027326;28;4203;-65
2023/09/03 02:41:35;;;;;;;;;;;;;;;21.00;60.73;101852.34;5025217;28;4071;-65
2023/09/03 02:44:01;;;;;;;;;;;;;;;21.01;60.72;101850.25;5024222;28;4304;-65
2023/09/03 02:46:28;;;;;;;;;;;;;;;21.01;60.39;101850.25;5026609;28;4157;-65
2023/09/03 02:48:54;;;;;;;;;;;;;;;21.00;60.39;101851.59;5027520;28;4109;-65
2023/09/03 02:51:21;;;;;;;;;;;;;;;21.00;60.39;101837.94;5024225;28;4260;-65
2023/09/03 02:53:48;;;;;;;;;;;;;;;21.00;60.37;101837.19;5026963;28;4195;-65
2023/09/03 02:56:15;;;;;;;;;;;;;;;21.00;60.42;101831.44;5007681;28;4105;-65
2023/09/03 02:58:41;;;;;;;;;;;;;;;21.00;60.41;101831.44;5030912;28;4270;-65
2023/09/03 03:01:12;;;;;;;;;;;;;;;21.00;60.56;101831.44;5021939;28;4935;-65
2023/09/03 03:03:40;;;;;;;;;;;;;;;20.98;60.44;101828.44;5034819;28;4048;-65
2023/09/03 03:06:06;;;;;;;;;;;;;;;20.98;60.33;101825.56;5029968;28;4140;-65
2023/09/03 03:08:33;;;;;;;;;;;;;;;20.98;60.55;101834.19;5031839;28;4149;-65
2023/09/03 03:11:08;;;;;;;;;;;;;;;20.98;60.46;101834.19;5027137;28;4147;-65
2023/09/03 03:13:37;;;;;;;;;;;;;;;20.98;60.57;101845.72;5043347;28;4197;-65
2023/09/03 03:16:08;;;;;;;;;;;;;;;20.98;60.55;101837.06;5043902;28;4055;-66
2023/09/03 03:18:36;;;;;;;;;;;;;;;20.98;60.26;101845.72;5039699;28;4076;-65
2023/09/03 03:21:06;;;;;;;;;;;;;;;20.98;60.41;101846.50;5026812;28;4356;-65
2023/09/03 03:23:33;;;;;;;;;;;;;;;20.97;60.44;101853.63;5030573;28;4187;-65
2023/09/03 03:26:00;;;;;;;;;;;;;;;20.98;60.35;101863.00;5039568;28;4005;-65
2023/09/03 03:28:27;;;;;;;;;;;;;;;20.97;60.49;101862.25;5044208;28;4069;-65
2023/09/03 03:30:53;;;;;;;;;;;;;;;20.98;60.49;101857.22;5029920;28;4022;-65
2023/09/03 03:33:19;;;;;;;;;;;;;;;20.97;60.29;101861.50;5041730;28;4226;-65
2023/09/03 03:35:46;;;;;;;;;;;;;;;20.97;60.50;101864.38;5029691;28;4288;-65
2023/09/03 03:38:12;;;;;;;;;;;;;;;20.97;60.33;101856.50;5024528;28;4058;-65
2023/09/03 03:40:39;;;;;;;;;;;;;;;20.98;60.29;101854.34;5031436;28;4174;-65
2023/09/03 03:43:06;;;;;;;;;;;;;;;20.98;60.41;101854.34;5027009;28;4111;-65
2023/09/03 03:45:33;;;;;;;;;;;;;;;20.98;60.30;101849.38;5036289;28;4225;-65
2023/09/03 03:48:01;;;;;;;;;;;;;;;20.98;60.47;101863.00;5040731;28;4107;-65
2023/09/03 03:50:30;;;;;;;;;;;;;;;20.97;60.35;101867.25;5026517;28;4097;-65
2023/09/03 03:52:57;;;;;;;;;;;;;;;20.97;60.49;101873.03;5027766;28;4110;-65
2023/09/03 03:55:23;;;;;;;;;;;;;;;20.96;60.33;101878.03;5029432;28;4191;-65
2023/09/03 03:57:50;;;;;;;;;;;;;;;20.97;60.26;101870.16;5028620;28;4183;-65
2023/09/03 04:00:16;;;;;;;;;;;;;;;20.96;60.40;101869.41;5030702;28;4239;-65
2023/09/03 04:02:43;;;;;;;;;;;;;;;20.96;60.53;101871.50;5042987;28;4027;-64
2023/09/03 04:05:09;;;;;;;;;;;;;;;20.96;60.38;101883.03;5042722;28;4034;-65
2023/09/03 04:07:36;;;;;;;;;;;;;;;20.96;60.28;101880.16;5026354;28;4066;-65
2023/09/03 04:10:02;;;;;;;;;;;;;;;20.96;60.41;101880.91;5027490;28;4124;-65
2023/09/03 04:12:28;;;;;;;;;;;;;;;20.96;60.56;101885.91;5026221;28;4131;-65
2023/09/03 04:14:56;;;;;;;;;;;;;;;20.96;60.42;101892.44;5027850;28;4174;-65
2023/09/03 04:17:22;;;;;;;;;;;;;;;20.96;60.17;101892.44;5025289;28;4003;-66
2023/09/03 04:19:49;;;;;;;;;;;;;;;20.96;60.39;101895.31;5026666;28;4077;-65
2023/09/03 04:22:15;;;;;;;;;;;;;;;20.95;60.29;101899.56;5028270;28;4176;-65
2023/09/03 04:24:42;;;;;;;;;;;;;;;20.95;60.29;101904.56;5043629;28;4293;-65
2023/09/03 04:27:08;;;;;;;;;;;;;;;20.93;60.29;101896.56;5029449;28;5039;-65
2023/09/03 04:29:36;;;;;;;;;;;;;;;20.93;60.40;101902.31;5024388;28;4318;-65
2023/09/03 04:32:02;;;;;;;;;;;;;;;20.93;60.20;101916.72;5026575;28;4193;-65
2023/09/03 04:34:29;;;;;;;;;;;;;;;20.92;60.40;101913.09;5040685;28;4039;-65
2023/09/03 04:36:56;;;;;;;;;;;;;;;20.92;60.26;101913.09;5024309;28;4026;-65
2023/09/03 04:39:22;;;;;;;;;;;;;;;20.93;60.18;101919.59;5028959;28;4213;-65
2023/09/03 04:41:48;;;;;;;;;;;;;;;20.94;60.10;101921.09;5022788;28;4044;-65
2023/09/03 04:44:15;;;;;;;;;;;;;;;20.95;60.24;101916.09;5042163;28;4051;-65
2023/09/03 04:46:46;;;;;;;;;;;;;;;20.93;60.09;101908.81;5027452;28;3932;-65
2023/09/03 04:49:13;;;;;;;;;;;;;;;20.92;60.18;101921.72;5025358;28;4114;-65
2023/09/03 04:51:39;;;;;;;;;;;;;;;20.92;60.14;101923.84;5023735;28;4383;-65
2023/09/03 04:54:06;;;;;;;;;;;;;;;20.93;60.20;101926.09;5022901;28;4276;-65
2023/09/03 04:56:33;;;;;;;;;;;;;;;20.92;60.14;101924.59;5026253;28;4139;-65
2023/09/03 04:58:59;;;;;;;;;;;;;;;20.92;60.16;101935.38;5026118;28;4128;-65
2023/09/03 05:01:26;;;;;;;;;;;;;;;20.91;60.36;101937.50;5027048;28;4080;-66
2023/09/03 05:03:56;;;;;;;;;;;;;;;20.91;60.10;101934.63;5018911;28;4117;-65
2023/09/03 05:06:23;;;;;;;;;;;;;;;20.90;60.03;101947.50;5025003;28;4080;-66
2023/09/03 05:08:52;;;;;;;;;;;;;;;20.91;60.06;101951.91;5042959;28;4108;-65
2023/09/03 05:11:20;;;;;;;;;;;;;;;20.91;60.04;101948.25;5043423;28;4128;-65
2023/09/03 05:13:48;;;;;;;;;;;;;;;20.90;60.15;101947.50;5044117;28;4249;-65
2023/09/03 05:16:15;;;;;;;;;;;;;;;20.90;60.12;101943.88;5040107;28;4065;-66
2023/09/03 05:18:42;;;;;;;;;;;;;;;20.90;60.20;101956.16;5038475;28;4030;-65
2023/09/03 05:21:09;;;;;;;;;;;;;;;20.91;59.96;101963.44;5022877;28;4165;-65
2023/09/03 05:23:36;;;;;;;;;;;;;;;20.91;60.20;101963.44;5022759;28;4123;-65
2023/09/03 05:26:03;;;;;;;;;;;;;;;20.90;60.00;101959.03;5024901;28;3970;-65
2023/09/03 05:28:29;;;;;;;;;;;;;;;20.91;59.96;101980.69;5027308;28;4087;-65
2023/09/03 05:30:56;;;;;;;;;;;;;;;20.89;60.19;101983.44;5020061;28;4149;-65
2023/09/03 05:33:22;;;;;;;;;;;;;;;20.89;60.12;101983.44;5023792;28;4449;-65
2023/09/03 05:35:49;;;;;;;;;;;;;;;20.89;59.98;101983.44;5021312;28;4192;-65
2023/09/03 05:38:15;;;;;;;;;;;;;;;20.90;60.13;101979.19;5030602;28;4051;-65
2023/09/03 05:40:41;;;;;;;;;;;;;;;20.89;59.98;101977.69;5026407;28;4166;-66
2023/09/03 05:43:08;;;;;;;;;;;;;;;20.89;60.00;101971.94;5022356;28;4100;-65
2023/09/03 05:45:34;;;;;;;;;;;;;;;20.90;59.86;101978.44;5039578;28;3932;-65
2023/09/03 05:48:01;;;;;;;;;;;;;;;20.90;59.96;101987.81;5022888;28;4163;-65
2023/09/03 05:50:31;;;;;;;;;;;;;;;20.91;60.16;101985.69;5027034;28;4188;-66
2023/09/03 05:52:58;;;;;;;;;;;;;;;20.90;59.99;101996.47;5023706;28;4384;-65
2023/09/03 05:55:25;;;;;;;;;;;;;;;20.91;59.82;102005.84;5038490;28;4077;-65
2023/09/03 05:57:54;;;;;;;;;;;;;;;20.91;60.01;102008.72;5025469;28;4305;-65
2023/09/03 06:00:21;;;;;;;;;;;;;;;20.89;60.06;102018.00;5025654;28;4035;-65
2023/09/03 06:02:48;;;;;;;;;;;;;;;20.89;60.13;102020.09;5023429;28;4215;-64
2023/09/03 06:05:16;;;;;;;;;;;;;;;20.88;60.00;102027.25;5040814;28;4047;-65
2023/09/03 06:07:42;;;;;;;;;;;;;;;20.88;60.20;102042.41;5022191;28;4345;-65
2023/09/03 06:10:09;;;;;;;;;;;;;;;20.88;60.01;102050.28;5022540;28;4055;-64
2023/09/03 06:12:35;;;;;;;;;;;;;;;20.89;60.10;102069.84;5022195;28;4119;-65
2023/09/03 06:15:02;;;;;;;;;;;;;;;20.88;60.18;102074.06;5026717;28;4450;-65
2023/09/03 06:17:28;;;;;;;;;;;;;;;20.89;60.00;102064.06;5026651;28;3991;-65
2023/09/03 06:19:55;;;;;;;;;;;;;;;20.89;59.91;102078.47;5025300;28;4185;-65
2023/09/03 06:22:21;;;;;;;;;;;;;;;20.89;60.04;102075.59;5027080;28;4115;-66
2023/09/03 06:24:48;;;;;;;;;;;;;;;20.89;59.94;102078.47;5027717;28;4038;-65
2023/09/03 06:27:14;;;;;;;;;;;;;;;20.88;60.13;102068.31;5024887;28;4023;-65
2023/09/03 06:29:40;;;;;;;;;;;;;;;20.89;60.21;102057.53;5030508;28;3983;-65
2023/09/03 06:32:07;;;;;;;;;;;;;;;20.89;60.21;102069.84;5024045;28;4135;-65
2023/09/03 06:34:33;;;;;;;;;;;;;;;20.88;60.09;102056.78;5027546;28;4300;-65
2023/09/03 06:36:59;;;;;;;;;;;;;;;20.87;60.20;102069.69;5023968;28;4248;-65
2023/09/03 06:39:26;;;;;;;;;;;;;;;20.86;60.24;102076.81;5026649;28;3914;-66
2023/09/03 06:41:52;;;;;;;;;;;;;;;20.85;60.26;102058.06;5029422;28;4896;-68
2023/09/03 06:44:21;;;;;;;;;;;;;;;20.59;60.83;102067.88;5026910;28;4176;-66
2023/09/03 06:46:47;;;;;;;;;;;;;;;20.46;61.41;102072.81;5027166;28;4178;-65
2023/09/03 06:49:14;;;;;;;;;;;;;;;20.53;61.23;102073.97;5027198;28;4127;-66
2023/09/03 06:51:40;;;;;;;;;;;;;;;20.61;61.15;102076.63;5024060;28;3972;-66
2023/09/03 06:54:07;;;;;;;;;;;;;;;20.64;60.99;102084.78;5028395;28;4352;-67
2023/09/03 06:56:34;;;;;;;;;;;;;;;20.56;61.07;102090.00;5030707;28;4142;-67
2023/09/03 06:59:01;;;;;;;;;;;;;;;20.70;60.71;102093.81;5024585;28;4377;-66
2023/09/03 07:01:27;;;;;;;;;;;;;;;20.79;60.57;102094.34;5028602;28;4211;-70
2023/09/03 07:03:54;;;;;;;;;;;;;;;20.72;60.43;102104.69;5030179;28;4150;-66
2023/09/03 07:06:21;;;;;;;;;;;;;;;20.64;60.80;102107.81;5027239;28;4106;-66
2023/09/03 07:08:47;;;;;;;;;;;;;;;20.81;60.51;102117.50;5033638;28;4144;-66
2023/09/03 07:11:14;;;;;;;;;;;;;;;20.86;60.36;102122.88;5034385;28;4152;-66
2023/09/03 07:13:40;;;;;;;;;;;;;;;20.91;59.99;102118.13;5030349;28;4213;-66
2023/09/03 07:16:07;;;;;;;;;;;;;;;20.93;60.21;102110.38;5033409;28;4107;-66
2023/09/03 07:18:33;;;;;;;;;;;;;;;20.96;59.79;102107.63;5032295;28;4110;-65
2023/09/03 07:21:03;;;;;;;;;;;;;;;20.97;60.07;102114.91;5033594;28;4237;-66
2023/09/03 07:23:30;;;;;;;;;;;;;;;20.98;59.89;102122.16;5035011;28;3980;-66
2023/09/03 07:26:00;;;;;;;;;;;;;;;20.98;59.89;102127.91;5043670;28;3925;-65
2023/09/03 07:28:26;;;;;;;;;;;;;;;20.98;60.11;102140.22;5031281;28;4986;-66
2023/09/03 07:30:53;;;;;;;;;;;;;;;20.98;59.76;102145.19;5031996;28;4114;-66
2023/09/03 07:33:19;;;;;;;;;;;;;;;20.99;59.88;102138.09;5031521;28;4013;-66
2023/09/03 07:35:46;;;;;;;;;;;;;;;21.00;59.86;102142.47;5031965;28;4130;-65
2023/09/03 07:38:12;;;;;;;;;;;;;;;21.00;59.86;102130.94;5029526;28;4037;-66
2023/09/03 07:40:38;;;;;;;;;;;;;;;21.00;59.96;102119.41;5028491;28;4143;-66
2023/09/03 07:43:05;;;;;;;;;;;;;;;21.00;60.16;102125.91;5031933;28;4175;-66
2023/09/03 07:45:31;;;;;;;;;;;;;;;21.00;59.81;102114.41;5033074;28;4187;-66
2023/09/03 07:47:58;;;;;;;;;;;;;;;21.01;59.91;102120.94;5030757;28;4889;-66
2023/09/03 07:50:26;;;;;;;;;;;;;;;21.01;59.87;102121.69;5027717;28;4110;-66
2023/09/03 07:52:52;;;;;;;;;;;;;;;21.01;59.92;102127.44;5028054;28;4115;-66
2023/09/03 07:55:19;;;;;;;;;;;;;;;21.03;59.93;102132.59;5031046;28;4052;-66
2023/09/03 07:57:46;;;;;;;;;;;;;;;21.03;59.94;102135.47;5034679;28;4129;-66
2023/09/03 08:00:13;;;;;;;;;;;;;;;21.04;60.10;102139.84;5029699;28;3898;-66
2023/09/03 08:02:41;;;;;;;;;;;;;;;21.04;60.05;102157.88;5031285;28;4063;-66
2023/09/03 08:05:11;;;;;;;;;;;;;;;21.04;59.91;102157.13;5032668;28;4897;-66
2023/09/03 08:07:38;;;;;;;;;;;;;;;21.03;60.03;102158.50;5026113;28;4273;-67
2023/09/03 08:10:05;;;;;;;;;;;;;;;20.79;60.17;102164.16;5026963;28;4154;-70
2023/09/03 08:12:31;;;;;;;;;;;;;;;20.78;60.36;102177.06;5026096;28;4032;-67
2023/09/03 08:14:57;;;;;;;;;;;;;;;20.91;59.72;102181.50;5024875;28;4182;-69
2023/09/03 08:17:26;;;;;;;;;;;;;;;20.95;59.95;102181.00;5023846;28;4035;-66
2023/09/03 08:19:52;;;;;;;;;;;;;;;20.88;59.59;102183.47;5022782;28;4464;-67
2023/09/03 08:22:19;;;;;;;;;;;;;;;20.74;59.53;102161.66;5027772;28;4543;-67
2023/09/03 08:24:45;;;;;;;;;;;;;;;20.82;59.57;102162.94;5025381;28;3955;-66
2023/09/03 08:27:12;;;;;;;;;;;;;;;20.80;59.19;102164.91;5024909;28;4051;-66
2023/09/03 08:29:38;;;;;;;;;;;;;;;20.79;59.38;102158.41;5022542;28;4162;-66
2023/09/03 08:32:04;;;;;;;;;;;;;;;20.79;58.66;102152.66;5025492;28;4142;-66
2023/09/03 08:34:31;;;;;;;;;;;;;;;20.77;58.24;102154.66;5021228;28;4267;-66
2023/09/03 08:36:57;;;;;;;;;;;;;;;20.72;58.20;102165.16;5028271;28;4365;-66
2023/09/03 08:39:24;;;;;;;;;;;;;;;20.67;58.14;102157.63;5029430;28;4146;-66
2023/09/03 08:41:50;;;;;;;;;;;;;;;20.77;58.18;102152.53;5025261;28;4162;-81
2023/09/03 08:44:23;;;;;;;;;;;;;;;20.79;57.99;102167.06;5026871;28;4097;-82
2023/09/03 08:46:49;;;;;;;;;;;;;;;20.79;58.31;102169.94;5026238;28;4161;-82
2023/09/03 08:49:16;;;;;;;;;;;;;;;20.73;58.67;102175.31;5027751;28;4333;-84
2023/09/03 08:51:42;;;;;;;;;;;;;;;20.69;58.32;102172.16;5028462;28;4208;-83
2023/09/03 08:54:08;;;;;;;;;;;;;;;20.68;58.48;102164.88;5027485;28;4187;-83
2023/09/03 08:56:35;;;;;;;;;;;;;;;20.70;58.39;102153.50;5029246;28;4051;-85
2023/09/03 08:59:01;;;;;;;;;;;;;;;20.75;58.12;102161.03;5027242;28;4379;-82
2023/09/03 09:01:29;;;;;;;;;;;;;;;20.78;57.86;102150.41;5025648;28;4031;-84
2023/09/03 09:03:57;;;;;;;;;;;;;;;20.77;57.80;102154.66;5026381;28;4340;-84
2023/09/03 09:06:24;;;;;;;;;;;;;;;20.76;57.71;102145.28;5025770;28;4221;-84
2023/09/03 09:08:50;;;;;;;;;;;;;;;20.74;57.66;102145.13;5027626;28;4181;-85
2023/09/03 09:11:17;;;;;;;;;;;;;;;20.74;57.22;102145.13;5046522;28;3995;-83
2023/09/03 09:13:47;;;;;;;;;;;;;;;20.71;57.26;102152.16;5026343;28;4167;-81
2023/09/03 09:16:14;;;;;;;;;;;;;;;20.69;56.94;102143.38;5019308;28;4135;-83
2023/09/03 09:18:41;;;;;;;;;;;;;;;20.74;56.78;102142.25;5025813;28;4304;-78
2023/09/03 09:21:07;;;;;;;;;;;;;;;20.82;56.64;102145.69;5027645;28;4099;-75
2023/09/03 09:23:33;;;;;;;;;;;;;;;20.92;56.63;102143.44;5024831;28;4245;-75
2023/09/03 09:26:00;;;;;;;;;;;;;;;20.98;56.70;102159.59;5036929;28;4210;-75
2023/09/03 09:28:26;;;;;;;;;;;;;;;20.96;56.47;102154.47;5025826;28;4023;-75
2023/09/03 09:30:53;;;;;;;;;;;;;;;20.98;56.72;102165.34;5025738;28;4161;-74
2023/09/03 09:33:19;;;;;;;;;;;;;;;20.98;56.86;102162.47;5026030;28;4304;-75
2023/09/03 09:35:46;;;;;;;;;;;;;;;20.93;57.10;102167.97;5023277;28;4102;-74
2023/09/03 09:38:13;;;;;;;;;;;;;;;21.11;56.94;102179.91;5023195;28;4224;-76
2023/09/03 09:40:40;;;;;;;;;;;;;;;21.09;56.65;102173.28;5024614;28;4270;-75
2023/09/03 09:43:07;;;;;;;;;;;;;;;21.04;56.96;102178.03;5024517;28;4469;-75
2023/09/03 09:45:34;;;;;;;;;;;;;;;21.07;56.62;102178.91;5024030;28;4021;-75
2023/09/03 09:48:04;;;;;;;;;;;;;;;21.06;56.67;102181.03;5022709;28;4151;-72
2023/09/03 09:50:31;;;;;;;;;;;;;;;20.94;56.95;102168.75;5027445;28;4228;-72
2023/09/03 09:52:57;;;;;;;;;;;;;;;20.94;56.55;102160.09;5028782;28;4126;-75
2023/09/03 09:55:24;;;;;;;;;;;;;;;20.96;56.13;102160.25;5029034;28;4200;-76
2023/09/03 09:57:50;;;;;;;;;;;;;;;21.01;56.02;102167.75;5027452;28;4175;-74
2023/09/03 10:00:30;;;;;;;;;;;;;;;21.01;56.01;102169.91;5031892;28;4218;-75
2023/09/03 10:02:57;;;;;;;;;;;;;;;20.96;56.35;102171.75;5029216;28;4135;-74
2023/09/03 10:05:24;;;;;;;;;;;;;;;20.82;55.76;102165.81;5028090;28;4164;-75
2023/09/03 10:07:51;;;;;;;;;;;;;;;20.79;55.30;102166.31;5034414;28;4182;-75
2023/09/03 10:10:17;;;;;;;;;;;;;;;20.78;54.95;102165.56;5028236;28;4179;-73
2023/09/03 10:12:43;;;;;;;;;;;;;;;20.84;54.71;102165.94;5021948;28;3973;-75
2023/09/03 10:15:12;;;;;;;;;;;;;;;20.84;54.91;102154.41;5026503;28;4275;-75
2023/09/03 10:17:39;;;;;;;;;;;;;;;20.85;55.10;102152.31;5025086;28;4352;-79
2023/09/03 10:20:07;;;;;;;;;;;;;;;20.87;54.96;102158.22;5025736;28;4109;-79
2023/09/03 10:22:36;;;;;;;;;;;;;;;20.92;55.36;102157.84;5041711;28;4226;-73
2023/09/03 10:25:12;;;;;;;;;;;;;;;20.82;55.50;102151.44;5024312;28;4271;-70
2023/09/03 10:27:39;;;;;;;;;;;;;;;20.97;55.15;102161.00;5042414;28;4116;-73
2023/09/03 10:30:07;;;;;;;;;;;;;;;21.05;55.32;102158.63;5040855;28;4111;-73
2023/09/03 10:32:33;;;;;;;;;;;;;;;21.12;55.33;102169.19;5029488;28;4141;-80
2023/09/03 10:35:06;;;;;;;;;;;;;;;21.16;55.24;102171.53;5004019;28;4309;-80
2023/09/03 10:37:36;;;;;;;;;;;;;;;21.18;55.51;102163.78;5036347;28;4174;-71
2023/09/03 10:40:16;;;;;;;;;;;;;;;21.14;54.84;102169.28;5025158;28;4112;-72
2023/09/03 10:42:42;;;;;;;;;;;;;;;21.12;54.72;102163.41;5019367;28;4084;-76
2023/09/03 10:45:11;;;;;;;;;;;;;;;21.16;55.03;102165.78;5021555;28;4109;-73
2023/09/03 10:47:57;;;;;;;;;;;;;;;21.13;55.64;102168.53;5024136;28;4180;-81
2023/09/03 10:50:42;;;;;;;;;;;;;;;21.18;54.95;102171.69;5024348;28;4096;-79
2023/09/03 10:53:09;;;;;;;;;;;;;;;21.48;53.69;102175.75;5028223;28;4177;-85
2023/09/03 10:55:36;;;;;;;;;;;;;;;21.05;52.45;102179.53;5026090;28;4146;-78
2023/09/03 10:58:08;;;;;;;;;;;;;;;21.23;53.67;102165.53;5032463;28;4147;-80
2023/09/03 11:00:34;;;;;;;;;;;;;;;21.49;53.63;102163.63;5023847;28;4145;-84
2023/09/03 11:03:14;;;;;;;;;;;;;;;21.70;52.44;102168.50;5027042;28;4144;-78
2023/09/03 11:05:40;;;;;;;;;;;;;;;21.65;52.29;102163.88;5008687;28;4211;-82
2023/09/03 11:08:22;;;;;;;;;;;;;;;21.57;51.45;102177.75;5021388;28;4229;-81
2023/09/03 11:10:48;;;;;;;;;;;;;;;21.65;51.38;102175.41;5023468;28;4025;-83
2023/09/03 11:13:15;;;;;;;;;;;;;;;21.30;52.33;102173.22;5025229;28;4411;-85
2023/09/03 11:16:01;;;;;;;;;;;;;;;21.38;51.13;102178.72;5020787;28;3982;-76
2023/09/03 11:18:28;;;;;;;;;;;;;;;21.73;51.72;102181.66;5024480;28;4157;-80
2023/09/03 11:20:57;;;;;;;;;;;;;;;21.99;50.75;102173.13;5025985;28;4070;-88
2023/09/03 11:23:24;;;;;;;;;;;;;;;22.35;50.57;102176.72;5025546;28;4167;-87
2023/09/03 11:25:51;;;;;;;;;;;;;;;22.17;50.41;102174.22;5028152;28;4135;-84
2023/09/03 11:28:17;;;;;;;;;;;;;;;22.37;50.13;102182.59;5026847;28;4127;-84
2023/09/03 11:30:44;;;;;;;;;;;;;;;22.28;49.46;102192.16;5032757;28;4161;-83
2023/09/03 11:33:23;;;;;;;;;;;;;;;22.08;50.12;102186.66;5025039;28;4161;-81
2023/09/03 11:35:49;;;;;;;;;;;;;;;22.34;50.11;102184.63;5030271;28;4162;-78
2023/09/03 11:38:16;;;;;;;;;;;;;;;22.27;49.35;102184.91;5030333;28;4355;-81
2023/09/03 11:40:42;;;;;;;;;;;;;;;22.04;49.10;102195.06;5043260;28;5267;-79
2023/09/03 11:43:09;;;;;;;;;;;;;;;22.08;48.91;102203.19;5033074;28;4208;-78
2023/09/03 11:45:36;;;;;;;;;;;;;;;22.37;48.11;102194.16;5031677;28;4034;-78
2023/09/03 11:48:06;;;;;;;;;;;;;;;22.39;48.03;102211.59;5026188;28;4310;-82
2023/09/03 11:50:33;;;;;;;;;;;;;;;22.14;48.55;102206.47;5028033;28;4478;-74
2023/09/03 11:53:00;;;;;;;;;;;;;;;22.27;48.45;102202.22;5026703;28;4138;-79
2023/09/03 11:55:27;;;;;;;;;;;;;;;22.04;48.66;102215.25;5027035;28;3998;-75
2023/09/03 11:57:53;;;;;;;;;;;;;;;21.95;49.48;102207.50;5028207;28;4124;-78
2023/09/03 12:00:20;;;;;;;;;;;;;;;22.14;49.56;102209.34;5027333;28;4048;-76
2023/09/03 12:02:46;;;;;;;;;;;;;;;22.11;49.34;102216.38;5041088;28;4256;-78
2023/09/03 12:05:13;;;;;;;;;;;;;;;22.04;48.84;102214.50;5043135;28;4119;-78
2023/09/03 12:07:39;;;;;;;;;;;;;;;21.95;49.04;102216.88;5031027;28;4051;-81
2023/09/03 12:10:06;;;;;;;;;;;;;;;22.04;49.30;102223.91;5025324;28;4215;-77
2023/09/03 12:12:32;;;;;;;;;;;;;;;21.89;49.78;102230.19;5039331;28;4162;-84
2023/09/03 12:14:59;;;;;;;;;;;;;;;21.71;49.11;102229.78;5031745;28;4091;-79
2023/09/03 12:17:25;;;;;;;;;;;;;;;21.74;48.58;102229.31;5031169;28;4121;-83
2023/09/03 12:19:52;;;;;;;;;;;;;;;21.77;48.67;102227.28;5029496;28;4166;-87
2023/09/03 12:22:19;;;;;;;;;;;;;;;21.74;48.64;102220.66;5023200;28;4074;-82
2023/09/03 12:24:45;;;;;;;;;;;;;;;21.79;48.82;102224.53;5024489;28;4110;-82
2023/09/03 12:27:12;;;;;;;;;;;;;;;21.78;48.19;102233.81;5028470;28;4064;-74
2023/09/03 12:29:38;;;;;;;;;;;;;;;21.83;48.14;102221.16;5029124;28;4116;-75
2023/09/03 12:32:18;;;;;;;;;;;;;;;21.98;47.43;102229.31;5029365;28;4020;-78
2023/09/03 12:34:49;;;;;;;;;;;;;;;22.03;47.73;102219.50;5041287;28;4408;-81
2023/09/03 12:37:15;;;;;;;;;;;;;;;22.31;46.83;102220.53;5029954;28;4444;-78
2023/09/03 12:39:42;;;;;;;;;;;;;;;21.72;47.47;102226.28;5026773;28;4141;-81
2023/09/03 12:42:09;;;;;;;;;;;;;;;21.92;47.52;102234.69;5028216;28;4145;-86
2023/09/03 12:44:35;;;;;;;;;;;;;;;21.88;47.94;102232.31;5031568;28;4133;-79
2023/09/03 12:47:02;;;;;;;;;;;;;;;22.09;47.91;102228.53;5032975;28;4086;-79
2023/09/03 12:49:29;;;;;;;;;;;;;;;22.15;48.96;102231.03;5023089;28;4236;-80